sensor_id;sensor_type;location;lat;lon;timestamp;pressure;altitude;pressure_sealevel;temperature;humidity
55679;BME280;41573;51.446;-2.018;2023-04-07T00:01:19;100034.84;;;4.98;100.00
55679;BME280;41573;51.446;-2.018;2023-04-07T00:03:45;100025.19;;;4.97;100.00
55679;BME280;41573;51.446;-2.018;2023-04-07T00:06:11;100039.34;;;4.96;100.00
55679;BME280;41573;51.446;-2.018;2023-04-07T00:08:37;100030.56;;;4.96;100.00
55679;BME280;41573;51.446;-2.018;2023-04-07T00:11:03;100030.63;;;4.94;100.00
55679;BME280;41573;51.446;-2.018;2023-04-07T00:13:28;100021.78;;;4.95;100.00
55679;BME280;41573;51.446;-2.018;2023-04-07T00:15:53;100022.63;;;4.96;100.00
55679;BME280;41573;51.446;-2.018;2023-04-07T00:18:19;100020.06;;;4.94;100.00
55679;BME280;41573;51.446;-2.018;2023-04-07T00:20:45;100022.84;;;4.91;100.00
55679;BME280;41573;51.446;-2.018;2023-04-07T00:23:13;100007.16;;;4.88;100.00
55679;BME280;41573;51.446;-2.018;2023-04-07T00:25:41;100012.66;;;4.83;100.00
55679;BME280;41573;51.446;-2.018;2023-04-07T00:28:07;100001.38;;;4.80;100.00
55679;BME280;41573;51.446;-2.018;2023-04-07T00:30:32;100002.31;;;4.79;100.00
55679;BME280;41573;51.446;-2.018;2023-04-07T00:33:00;100001.69;;;4.74;100.00
55679;BME280;41573;51.446;-2.018;2023-04-07T00:35:28;100005.38;;;4.70;100.00
55679;BME280;41573;51.446;-2.018;2023-04-07T00:37:54;100008.28;;;4.63;100.00
55679;BME280;41573;51.446;-2.018;2023-04-07T00:40:19;99996.25;;;4.58;100.00
55679;BME280;41573;51.446;-2.018;2023-04-07T00:42:45;100007.63;;;4.58;100.00
55679;BME280;41573;51.446;-2.018;2023-04-07T00:45:10;99999.78;;;4.57;100.00
55679;BME280;41573;51.446;-2.018;2023-04-07T00:47:36;99995.94;;;4.45;100.00
55679;BME280;41573;51.446;-2.018;2023-04-07T00:50:03;99995.94;;;4.45;100.00
55679;BME280;41573;51.446;-2.018;2023-04-07T00:52:31;99997.00;;;4.41;100.00
55679;BME280;41573;51.446;-2.018;2023-04-07T00:54:57;99980.50;;;4.36;100.00
55679;BME280;41573;51.446;-2.018;2023-04-07T00:57:23;100006.88;;;4.36;100.00
55679;BME280;41573;51.446;-2.018;2023-04-07T00:59:50;99997.50;;;4.28;100.00
55679;BME280;41573;51.446;-2.018;2023-04-07T01:02:20;99997.59;;;4.27;100.00
55679;BME280;41573;51.446;-2.018;2023-04-07T01:07:23;99997.97;;;4.18;100.00
55679;BME280;41573;51.446;-2.018;2023-04-07T01:09:57;99991.06;;;4.15;100.00
55679;BME280;41573;51.446;-2.018;2023-04-07T01:15:11;99987.56;;;4.14;100.00
55679;BME280;41573;51.446;-2.018;2023-04-07T01:17:42;99992.84;;;4.14;100.00
55679;BME280;41573;51.446;-2.018;2023-04-07T01:20:11;99993.81;;;4.12;100.00
55679;BME280;41573;51.446;-2.018;2023-04-07T01:22:55;99985.13;;;4.10;100.00
55679;BME280;41573;51.446;-2.018;2023-04-07T01:25:42;99981.69;;;4.08;100.00
55679;BME280;41573;51.446;-2.018;2023-04-07T01:31:03;99983.56;;;4.06;100.00
55679;BME280;41573;51.446;-2.018;2023-04-07T01:33:31;99986.25;;;4.04;100.00
55679;BME280;41573;51.446;-2.018;2023-04-07T01:35:59;99978.41;;;4.03;100.00
55679;BME280;41573;51.446;-2.018;2023-04-07T01:38:26;99981.19;;;4.00;100.00
55679;BME280;41573;51.446;-2.018;2023-04-07T01:40:59;99985.72;;;3.96;100.00
55679;BME280;41573;51.446;-2.018;2023-04-07T01:43:29;99972.88;;;3.88;100.00
55679;BME280;41573;51.446;-2.018;2023-04-07T01:45:56;99977.28;;;3.88;100.00
55679;BME280;41573;51.446;-2.018;2023-04-07T01:48:22;99980.72;;;3.90;100.00
55679;BME280;41573;51.446;-2.018;2023-04-07T01:50:48;99988.69;;;3.88;100.00
55679;BME280;41573;51.446;-2.018;2023-04-07T01:53:14;99986.19;;;3.85;100.00
55679;BME280;41573;51.446;-2.018;2023-04-07T01:55:44;99988.75;;;3.87;100.00
55679;BME280;41573;51.446;-2.018;2023-04-07T01:58:09;99987.16;;;3.83;100.00
55679;BME280;41573;51.446;-2.018;2023-04-07T02:00:35;99983.59;;;3.84;100.00
55679;BME280;41573;51.446;-2.018;2023-04-07T02:03:21;99976.69;;;3.81;100.00
55679;BME280;41573;51.446;-2.018;2023-04-07T02:05:49;99986.44;;;3.79;100.00
55679;BME280;41573;51.446;-2.018;2023-04-07T02:08:17;99990.03;;;3.76;100.00
55679;BME280;41573;51.446;-2.018;2023-04-07T02:10:46;99983.94;;;3.76;100.00
55679;BME280;41573;51.446;-2.018;2023-04-07T02:13:17;99984.06;;;3.73;100.00
55679;BME280;41573;51.446;-2.018;2023-04-07T02:15:43;99989.97;;;3.78;100.00
55679;BME280;41573;51.446;-2.018;2023-04-07T02:18:12;99983.78;;;3.79;100.00
55679;BME280;41573;51.446;-2.018;2023-04-07T02:20:40;99988.28;;;3.77;100.00
55679;BME280;41573;51.446;-2.018;2023-04-07T02:23:07;99994.34;;;3.79;100.00
55679;BME280;41573;51.446;-2.018;2023-04-07T02:25:36;99983.16;;;3.74;100.00
55679;BME280;41573;51.446;-2.018;2023-04-07T02:28:03;99976.28;;;3.70;100.00
55679;BME280;41573;51.446;-2.018;2023-04-07T02:30:30;99979.69;;;3.72;100.00
55679;BME280;41573;51.446;-2.018;2023-04-07T02:32:55;99976.16;;;3.73;100.00
55679;BME280;41573;51.446;-2.018;2023-04-07T02:35:21;99967.44;;;3.71;100.00
55679;BME280;41573;51.446;-2.018;2023-04-07T02:37:47;99978.84;;;3.71;100.00
55679;BME280;41573;51.446;-2.018;2023-04-07T02:40:14;99975.34;;;3.71;100.00
55679;BME280;41573;51.446;-2.018;2023-04-07T02:42:40;99969.66;;;3.59;100.00
55679;BME280;41573;51.446;-2.018;2023-04-07T02:45:06;99982.31;;;3.51;100.00
55679;BME280;41573;51.446;-2.018;2023-04-07T02:47:33;99986.47;;;3.35;100.00
55679;BME280;41573;51.446;-2.018;2023-04-07T02:49:59;99988.66;;;3.23;100.00
55679;BME280;41573;51.446;-2.018;2023-04-07T02:52:24;99993.19;;;3.20;100.00
55679;BME280;41573;51.446;-2.018;2023-04-07T02:54:51;99987.53;;;3.07;100.00
55679;BME280;41573;51.446;-2.018;2023-04-07T02:57:18;99993.38;;;3.15;100.00
55679;BME280;41573;51.446;-2.018;2023-04-07T02:59:43;99999.56;;;3.14;100.00
55679;BME280;41573;51.446;-2.018;2023-04-07T03:02:09;99994.31;;;3.14;100.00
55679;BME280;41573;51.446;-2.018;2023-04-07T03:04:35;99994.13;;;3.19;100.00
55679;BME280;41573;51.446;-2.018;2023-04-07T03:07:01;99982.78;;;3.17;100.00
55679;BME280;41573;51.446;-2.018;2023-04-07T03:09:27;99985.34;;;3.18;100.00
55679;BME280;41573;51.446;-2.018;2023-04-07T03:11:52;99995.16;;;3.15;100.00
55679;BME280;41573;51.446;-2.018;2023-04-07T03:14:18;100001.97;;;2.97;100.00
55679;BME280;41573;51.446;-2.018;2023-04-07T03:16:44;100003.94;;;2.91;100.00
55679;BME280;41573;51.446;-2.018;2023-04-07T03:19:09;100017.41;;;2.82;100.00
55679;BME280;41573;51.446;-2.018;2023-04-07T03:21:37;100021.97;;;2.77;100.00
55679;BME280;41573;51.446;-2.018;2023-04-07T03:24:05;100031.84;;;2.72;100.00
55679;BME280;41573;51.446;-2.018;2023-04-07T03:26:31;100034.59;;;2.69;100.00
55679;BME280;41573;51.446;-2.018;2023-04-07T03:28:57;100029.31;;;2.69;100.00
55679;BME280;41573;51.446;-2.018;2023-04-07T03:31:22;100031.06;;;2.68;100.00
55679;BME280;41573;51.446;-2.018;2023-04-07T03:33:49;100023.94;;;2.72;100.00
55679;BME280;41573;51.446;-2.018;2023-04-07T03:36:15;100031.94;;;2.69;100.00
55679;BME280;41573;51.446;-2.018;2023-04-07T03:38:42;100039.38;;;2.57;100.00
55679;BME280;41573;51.446;-2.018;2023-04-07T03:41:07;100046.78;;;2.46;100.00
55679;BME280;41573;51.446;-2.018;2023-04-07T03:43:33;100052.28;;;2.38;100.00
55679;BME280;41573;51.446;-2.018;2023-04-07T03:45:59;100055.09;;;2.34;100.00
55679;BME280;41573;51.446;-2.018;2023-04-07T03:48:25;100063.06;;;2.31;100.00
55679;BME280;41573;51.446;-2.018;2023-04-07T03:50:51;100057.81;;;2.31;100.00
55679;BME280;41573;51.446;-2.018;2023-04-07T03:53:17;100068.16;;;2.35;100.00
55679;BME280;41573;51.446;-2.018;2023-04-07T03:55:44;100063.69;;;2.39;100.00
55679;BME280;41573;51.446;-2.018;2023-04-07T03:58:10;100061.72;;;2.44;100.00
55679;BME280;41573;51.446;-2.018;2023-04-07T04:00:38;100054.44;;;2.52;100.00
55679;BME280;41573;51.446;-2.018;2023-04-07T04:03:05;100049.97;;;2.54;100.00
55679;BME280;41573;51.446;-2.018;2023-04-07T04:05:30;100045.41;;;2.59;100.00
55679;BME280;41573;51.446;-2.018;2023-04-07T04:07:56;100061.34;;;2.55;100.00
55679;BME280;41573;51.446;-2.018;2023-04-07T04:10:21;100053.91;;;2.42;100.00
55679;BME280;41573;51.446;-2.018;2023-04-07T04:12:47;100055.63;;;2.44;100.00
55679;BME280;41573;51.446;-2.018;2023-04-07T04:15:17;100050.47;;;2.40;100.00
55679;BME280;41573;51.446;-2.018;2023-04-07T04:17:42;100054.78;;;2.43;100.00
55679;BME280;41573;51.446;-2.018;2023-04-07T04:20:08;100054.66;;;2.46;100.00
55679;BME280;41573;51.446;-2.018;2023-04-07T04:22:34;100055.41;;;2.50;100.00
55679;BME280;41573;51.446;-2.018;2023-04-07T04:25:00;100044.88;;;2.50;100.00
55679;BME280;41573;51.446;-2.018;2023-04-07T04:27:26;100030.06;;;2.47;100.00
55679;BME280;41573;51.446;-2.018;2023-04-07T04:29:52;100026.31;;;2.54;100.00
55679;BME280;41573;51.446;-2.018;2023-04-07T04:32:18;100005.28;;;2.54;100.00
55679;BME280;41573;51.446;-2.018;2023-04-07T04:34:44;100015.59;;;2.61;100.00
55679;BME280;41573;51.446;-2.018;2023-04-07T04:37:09;100010.66;;;2.51;100.00
55679;BME280;41573;51.446;-2.018;2023-04-07T04:39:36;100011.19;;;2.36;100.00
55679;BME280;41573;51.446;-2.018;2023-04-07T04:42:02;100013.47;;;2.21;100.00
55679;BME280;41573;51.446;-2.018;2023-04-07T04:44:28;100018.22;;;2.10;100.00
55679;BME280;41573;51.446;-2.018;2023-04-07T04:46:55;100023.53;;;2.09;100.00
55679;BME280;41573;51.446;-2.018;2023-04-07T04:49:21;100019.22;;;2.06;100.00
55679;BME280;41573;51.446;-2.018;2023-04-07T04:51:47;100015.72;;;2.07;100.00
55679;BME280;41573;51.446;-2.018;2023-04-07T04:54:12;100017.44;;;2.08;100.00
55679;BME280;41573;51.446;-2.018;2023-04-07T04:56:38;100017.31;;;2.11;100.00
55679;BME280;41573;51.446;-2.018;2023-04-07T04:59:03;100010.41;;;2.09;100.00
55679;BME280;41573;51.446;-2.018;2023-04-07T05:01:30;100018.94;;;2.15;100.00
55679;BME280;41573;51.446;-2.018;2023-04-07T05:03:56;100007.59;;;2.13;100.00
55679;BME280;41573;51.446;-2.018;2023-04-07T05:06:22;100016.59;;;2.08;100.00
55679;BME280;41573;51.446;-2.018;2023-04-07T05:08:48;100017.66;;;2.02;100.00
55679;BME280;41573;51.446;-2.018;2023-04-07T05:11:16;100013.59;;;1.92;100.00
55679;BME280;41573;51.446;-2.018;2023-04-07T05:13:43;99969.19;;;1.85;100.00
55679;BME280;41573;51.446;-2.018;2023-04-07T05:16:08;99965.84;;;1.80;100.00
55679;BME280;41573;51.446;-2.018;2023-04-07T05:18:34;99952.88;;;1.76;100.00
55679;BME280;41573;51.446;-2.018;2023-04-07T05:21:01;99954.78;;;1.70;100.00
55679;BME280;41573;51.446;-2.018;2023-04-07T05:23:27;99961.03;;;1.68;100.00
55679;BME280;41573;51.446;-2.018;2023-04-07T05:25:52;99968.91;;;1.68;100.00
55679;BME280;41573;51.446;-2.018;2023-04-07T05:28:18;99963.88;;;1.60;100.00
55679;BME280;41573;51.446;-2.018;2023-04-07T05:30:43;99974.66;;;1.52;100.00
55679;BME280;41573;51.446;-2.018;2023-04-07T05:33:09;99979.16;;;1.47;100.00
55679;BME280;41573;51.446;-2.018;2023-04-07T05:35:35;99985.72;;;1.34;100.00
55679;BME280;41573;51.446;-2.018;2023-04-07T05:38:00;100003.31;;;1.30;100.00
55679;BME280;41573;51.446;-2.018;2023-04-07T05:40:26;100001.81;;;1.23;100.00
55679;BME280;41573;51.446;-2.018;2023-04-07T05:42:52;100012.38;;;1.20;100.00
55679;BME280;41573;51.446;-2.018;2023-04-07T05:45:18;100023.94;;;1.14;100.00
55679;BME280;41573;51.446;-2.018;2023-04-07T05:47:45;100021.31;;;1.14;100.00
55679;BME280;41573;51.446;-2.018;2023-04-07T05:50:15;100020.38;;;1.17;100.00
55679;BME280;41573;51.446;-2.018;2023-04-07T05:52:41;100023.84;;;1.17;100.00
55679;BME280;41573;51.446;-2.018;2023-04-07T05:55:07;100026.25;;;1.24;100.00
55679;BME280;41573;51.446;-2.018;2023-04-07T05:57:33;100025.34;;;1.25;100.00
55679;BME280;41573;51.446;-2.018;2023-04-07T05:59:59;100022.53;;;1.32;100.00
55679;BME280;41573;51.446;-2.018;2023-04-07T06:02:24;100031.03;;;1.39;100.00
55679;BME280;41573;51.446;-2.018;2023-04-07T06:04:50;100030.91;;;1.44;100.00
55679;BME280;41573;51.446;-2.018;2023-04-07T06:07:16;100028.97;;;1.49;100.00
55679;BME280;41573;51.446;-2.018;2023-04-07T06:09:41;100036.69;;;1.53;100.00
55679;BME280;41573;51.446;-2.018;2023-04-07T06:12:07;100036.53;;;1.60;100.00
55679;BME280;41573;51.446;-2.018;2023-04-07T06:14:33;100042.44;;;1.66;100.00
55679;BME280;41573;51.446;-2.018;2023-04-07T06:16:59;100031.69;;;1.74;100.00
55679;BME280;41573;51.446;-2.018;2023-04-07T06:19:25;100028.84;;;1.80;100.00
55679;BME280;41573;51.446;-2.018;2023-04-07T06:21:51;100031.38;;;1.83;100.00
55679;BME280;41573;51.446;-2.018;2023-04-07T06:24:17;100032.94;;;1.89;100.00
55679;BME280;41573;51.446;-2.018;2023-04-07T06:26:43;100031.06;;;1.93;100.00
55679;BME280;41573;51.446;-2.018;2023-04-07T06:29:08;100044.09;;;1.96;100.00
55679;BME280;41573;51.446;-2.018;2023-04-07T06:31:34;100043.09;;;2.00;100.00
55679;BME280;41573;51.446;-2.018;2023-04-07T06:33:59;100043.81;;;2.05;100.00
55679;BME280;41573;51.446;-2.018;2023-04-07T06:36:26;100041.97;;;2.07;100.00
55679;BME280;41573;51.446;-2.018;2023-04-07T06:38:53;100038.22;;;2.14;100.00
55679;BME280;41573;51.446;-2.018;2023-04-07T06:41:18;100041.47;;;2.22;100.00
55679;BME280;41573;51.446;-2.018;2023-04-07T06:43:48;100045.41;;;2.34;100.00
55679;BME280;41573;51.446;-2.018;2023-04-07T06:46:15;100041.94;;;2.34;100.00
55679;BME280;41573;51.446;-2.018;2023-04-07T06:48:40;100051.44;;;2.38;100.00
55679;BME280;41573;51.446;-2.018;2023-04-07T06:51:06;100049.41;;;2.46;100.00
55679;BME280;41573;51.446;-2.018;2023-04-07T06:53:31;100047.44;;;2.51;100.00
55679;BME280;41573;51.446;-2.018;2023-04-07T06:56:08;100051.44;;;2.63;100.00
55679;BME280;41573;51.446;-2.018;2023-04-07T06:58:35;100044.97;;;2.72;100.00
55679;BME280;41573;51.446;-2.018;2023-04-07T07:01:01;100047.13;;;2.84;100.00
55679;BME280;41573;51.446;-2.018;2023-04-07T07:03:28;100048.47;;;2.96;100.00
55679;BME280;41573;51.446;-2.018;2023-04-07T07:05:54;100045.41;;;3.07;100.00
55679;BME280;41573;51.446;-2.018;2023-04-07T07:08:24;100046.31;;;3.30;100.00
55679;BME280;41573;51.446;-2.018;2023-04-07T07:10:50;100041.81;;;3.33;100.00
55679;BME280;41573;51.446;-2.018;2023-04-07T07:13:17;100056.50;;;3.39;100.00
55679;BME280;41573;51.446;-2.018;2023-04-07T07:15:43;100050.88;;;3.48;100.00
55679;BME280;41573;51.446;-2.018;2023-04-07T07:18:09;100050.63;;;3.54;100.00
55679;BME280;41573;51.446;-2.018;2023-04-07T07:20:35;100043.16;;;3.66;100.00
55679;BME280;41573;51.446;-2.018;2023-04-07T07:23:00;100055.94;;;3.75;100.00
55679;BME280;41573;51.446;-2.018;2023-04-07T07:25:26;100065.88;;;3.90;100.00
55679;BME280;41573;51.446;-2.018;2023-04-07T07:27:52;100046.94;;;4.03;100.00
55679;BME280;41573;51.446;-2.018;2023-04-07T07:30:21;100058.53;;;4.19;100.00
55679;BME280;41573;51.446;-2.018;2023-04-07T07:32:47;100054.31;;;4.36;100.00
55679;BME280;41573;51.446;-2.018;2023-04-07T07:35:16;100060.75;;;4.49;100.00
55679;BME280;41573;51.446;-2.018;2023-04-07T07:37:41;100061.97;;;4.62;100.00
55679;BME280;41573;51.446;-2.018;2023-04-07T07:40:09;100059.56;;;4.77;100.00
55679;BME280;41573;51.446;-2.018;2023-04-07T07:42:35;100063.31;;;4.92;100.00
55679;BME280;41573;51.446;-2.018;2023-04-07T07:45:00;100049.22;;;5.12;100.00
55679;BME280;41573;51.446;-2.018;2023-04-07T07:47:26;100046.78;;;5.26;100.00
55679;BME280;41573;51.446;-2.018;2023-04-07T07:49:51;100053.19;;;5.40;100.00
55679;BME280;41573;51.446;-2.018;2023-04-07T07:52:18;100059.31;;;5.59;100.00
55679;BME280;41573;51.446;-2.018;2023-04-07T07:54:45;100060.13;;;5.79;100.00
55679;BME280;41573;51.446;-2.018;2023-04-07T07:57:10;100055.25;;;5.89;100.00
55679;BME280;41573;51.446;-2.018;2023-04-07T07:59:37;100056.31;;;6.03;100.00
55679;BME280;41573;51.446;-2.018;2023-04-07T08:02:05;100057.25;;;6.20;100.00
55679;BME280;41573;51.446;-2.018;2023-04-07T08:04:31;100057.84;;;6.25;100.00
55679;BME280;41573;51.446;-2.018;2023-04-07T08:06:56;100068.38;;;6.44;100.00
55679;BME280;41573;51.446;-2.018;2023-04-07T08:09:22;100080.19;;;6.54;100.00
55679;BME280;41573;51.446;-2.018;2023-04-07T08:11:48;100084.22;;;6.62;100.00
55679;BME280;41573;51.446;-2.018;2023-04-07T08:14:14;100088.63;;;6.79;100.00
55679;BME280;41573;51.446;-2.018;2023-04-07T08:16:39;100096.72;;;6.93;100.00
55679;BME280;41573;51.446;-2.018;2023-04-07T08:19:05;100121.28;;;7.13;100.00
55679;BME280;41573;51.446;-2.018;2023-04-07T08:21:30;100139.16;;;7.25;100.00
55679;BME280;41573;51.446;-2.018;2023-04-07T08:23:56;100152.84;;;7.33;100.00
55679;BME280;41573;51.446;-2.018;2023-04-07T08:26:21;100176.88;;;7.46;100.00
55679;BME280;41573;51.446;-2.018;2023-04-07T08:28:48;100184.59;;;7.51;100.00
55679;BME280;41573;51.446;-2.018;2023-04-07T08:31:16;100204.19;;;7.64;100.00
55679;BME280;41573;51.446;-2.018;2023-04-07T08:33:41;100224.38;;;7.67;100.00
55679;BME280;41573;51.446;-2.018;2023-04-07T08:36:06;100233.44;;;7.79;100.00
55679;BME280;41573;51.446;-2.018;2023-04-07T08:38:32;100255.63;;;7.78;100.00
55679;BME280;41573;51.446;-2.018;2023-04-07T08:41:02;100266.91;;;7.97;100.00
55679;BME280;41573;51.446;-2.018;2023-04-07T08:43:28;100277.47;;;8.15;100.00
55679;BME280;41573;51.446;-2.018;2023-04-07T08:45:56;100286.53;;;8.26;100.00
55679;BME280;41573;51.446;-2.018;2023-04-07T08:48:23;100294.25;;;8.31;100.00
55679;BME280;41573;51.446;-2.018;2023-04-07T08:50:51;100310.50;;;8.41;100.00
55679;BME280;41573;51.446;-2.018;2023-04-07T08:53:22;100314.16;;;8.56;100.00
55679;BME280;41573;51.446;-2.018;2023-04-07T08:55:48;100319.81;;;8.66;100.00
55679;BME280;41573;51.446;-2.018;2023-04-07T08:58:13;100331.50;;;8.77;100.00
55679;BME280;41573;51.446;-2.018;2023-04-07T09:00:42;100334.16;;;8.77;100.00
55679;BME280;41573;51.446;-2.018;2023-04-07T09:03:10;100342.97;;;8.94;100.00
55679;BME280;41573;51.446;-2.018;2023-04-07T09:05:36;100354.44;;;9.10;100.00
55679;BME280;41573;51.446;-2.018;2023-04-07T09:08:03;100358.63;;;9.14;100.00
55679;BME280;41573;51.446;-2.018;2023-04-07T09:10:28;100346.22;;;9.29;100.00
55679;BME280;41573;51.446;-2.018;2023-04-07T09:12:54;100360.34;;;9.16;100.00
55679;BME280;41573;51.446;-2.018;2023-04-07T09:15:20;100354.88;;;9.33;100.00
55679;BME280;41573;51.446;-2.018;2023-04-07T09:17:46;100355.22;;;9.57;100.00
55679;BME280;41573;51.446;-2.018;2023-04-07T09:20:12;100354.75;;;9.65;100.00
55679;BME280;41573;51.446;-2.018;2023-04-07T09:22:38;100353.94;;;9.79;100.00
55679;BME280;41573;51.446;-2.018;2023-04-07T09:25:21;100349.69;;;9.91;100.00
55679;BME280;41573;51.446;-2.018;2023-04-07T09:28:01;100339.06;;;10.05;100.00
55679;BME280;41573;51.446;-2.018;2023-04-07T09:30:28;100341.50;;;10.23;100.00
55679;BME280;41573;51.446;-2.018;2023-04-07T09:32:55;100351.00;;;10.27;100.00
55679;BME280;41573;51.446;-2.018;2023-04-07T09:35:21;100338.00;;;10.51;100.00
55679;BME280;41573;51.446;-2.018;2023-04-07T09:38:07;100332.06;;;10.60;100.00
55679;BME280;41573;51.446;-2.018;2023-04-07T09:40:34;100335.59;;;10.61;100.00
55679;BME280;41573;51.446;-2.018;2023-04-07T09:43:04;100331.00;;;10.63;100.00
55679;BME280;41573;51.446;-2.018;2023-04-07T09:45:31;100337.88;;;10.52;100.00
55679;BME280;41573;51.446;-2.018;2023-04-07T09:47:56;100336.91;;;10.68;100.00
55679;BME280;41573;51.446;-2.018;2023-04-07T09:50:35;100342.69;;;10.75;100.00
55679;BME280;41573;51.446;-2.018;2023-04-07T09:53:01;100336.13;;;10.66;100.00
55679;BME280;41573;51.446;-2.018;2023-04-07T09:55:29;100337.63;;;10.84;100.00
55679;BME280;41573;51.446;-2.018;2023-04-07T09:57:54;100340.34;;;10.97;100.00
55679;BME280;41573;51.446;-2.018;2023-04-07T10:00:20;100332.97;;;11.01;100.00
55679;BME280;41573;51.446;-2.018;2023-04-07T10:02:46;100321.53;;;11.13;100.00
55679;BME280;41573;51.446;-2.018;2023-04-07T10:05:13;100324.81;;;11.17;100.00
55679;BME280;41573;51.446;-2.018;2023-04-07T10:07:39;100313.78;;;11.36;100.00
55679;BME280;41573;51.446;-2.018;2023-04-07T10:10:05;100318.78;;;11.28;100.00
55679;BME280;41573;51.446;-2.018;2023-04-07T10:12:34;100307.69;;;11.34;100.00
55679;BME280;41573;51.446;-2.018;2023-04-07T10:15:01;100311.13;;;11.36;100.00
55679;BME280;41573;51.446;-2.018;2023-04-07T10:17:28;100313.94;;;11.60;100.00
55679;BME280;41573;51.446;-2.018;2023-04-07T10:19:55;100319.97;;;11.49;100.00
55679;BME280;41573;51.446;-2.018;2023-04-07T10:22:23;100314.25;;;11.55;100.00
55679;BME280;41573;51.446;-2.018;2023-04-07T10:25:01;100312.22;;;11.59;100.00
55679;BME280;41573;51.446;-2.018;2023-04-07T10:27:32;100306.44;;;11.65;100.00
55679;BME280;41573;51.446;-2.018;2023-04-07T10:29:59;100311.38;;;11.84;100.00
55679;BME280;41573;51.446;-2.018;2023-04-07T10:32:25;100314.16;;;11.96;100.00
55679;BME280;41573;51.446;-2.018;2023-04-07T10:37:20;100307.66;;;12.00;100.00
55679;BME280;41573;51.446;-2.018;2023-04-07T10:39:47;100304.31;;;12.09;100.00
55679;BME280;41573;51.446;-2.018;2023-04-07T10:45:08;100302.28;;;12.13;100.00
55679;BME280;41573;51.446;-2.018;2023-04-07T10:50:25;100299.81;;;12.22;100.00
55679;BME280;41573;51.446;-2.018;2023-04-07T10:58:16;100309.31;;;12.14;100.00
55679;BME280;41573;51.446;-2.018;2023-04-07T11:03:30;100311.47;;;12.21;100.00
55679;BME280;41573;51.446;-2.018;2023-04-07T11:06:06;100314.00;;;12.36;100.00
55679;BME280;41573;51.446;-2.018;2023-04-07T11:08:33;100320.63;;;12.30;100.00
55679;BME280;41573;51.446;-2.018;2023-04-07T11:10:59;100319.13;;;12.26;100.00
55679;BME280;41573;51.446;-2.018;2023-04-07T11:13:25;100316.44;;;12.39;100.00
55679;BME280;41573;51.446;-2.018;2023-04-07T11:15:51;100324.75;;;12.47;100.00
55679;BME280;41573;51.446;-2.018;2023-04-07T11:18:19;100322.78;;;12.62;100.00
55679;BME280;41573;51.446;-2.018;2023-04-07T11:20:53;100321.69;;;12.65;100.00
55679;BME280;41573;51.446;-2.018;2023-04-07T11:23:22;100316.94;;;12.81;100.00
55679;BME280;41573;51.446;-2.018;2023-04-07T11:25:51;100308.75;;;12.96;100.00
55679;BME280;41573;51.446;-2.018;2023-04-07T11:28:17;100302.84;;;13.15;100.00
55679;BME280;41573;51.446;-2.018;2023-04-07T11:30:51;100299.78;;;13.32;100.00
55679;BME280;41573;51.446;-2.018;2023-04-07T11:33:21;100300.09;;;13.52;100.00
55679;BME280;41573;51.446;-2.018;2023-04-07T11:35:49;100303.03;;;13.60;100.00
55679;BME280;41573;51.446;-2.018;2023-04-07T11:38:14;100298.31;;;13.75;100.00
55679;BME280;41573;51.446;-2.018;2023-04-07T11:40:40;100295.91;;;13.94;100.00
55679;BME280;41573;51.446;-2.018;2023-04-07T11:43:26;100286.28;;;13.92;100.00
55679;BME280;41573;51.446;-2.018;2023-04-07T11:46:05;100304.59;;;13.62;100.00
55679;BME280;41573;51.446;-2.018;2023-04-07T11:48:32;100300.25;;;13.73;100.00
55679;BME280;41573;51.446;-2.018;2023-04-07T11:50:58;100288.59;;;13.85;100.00
55679;BME280;41573;51.446;-2.018;2023-04-07T11:53:35;100296.34;;;13.77;100.00
55679;BME280;41573;51.446;-2.018;2023-04-07T11:56:28;100301.47;;;13.57;100.00
55679;BME280;41573;51.446;-2.018;2023-04-07T11:58:55;100307.53;;;13.59;100.00
55679;BME280;41573;51.446;-2.018;2023-04-07T12:01:21;100310.47;;;13.68;100.00
55679;BME280;41573;51.446;-2.018;2023-04-07T12:04:02;100299.53;;;13.71;100.00
55679;BME280;41573;51.446;-2.018;2023-04-07T12:06:35;100296.59;;;13.74;100.00
55679;BME280;41573;51.446;-2.018;2023-04-07T12:09:04;100294.66;;;13.76;100.00
55679;BME280;41573;51.446;-2.018;2023-04-07T12:11:30;100295.38;;;13.78;100.00
55679;BME280;41573;51.446;-2.018;2023-04-07T12:13:56;100304.13;;;13.80;100.00
55679;BME280;41573;51.446;-2.018;2023-04-07T12:16:22;100316.28;;;13.61;100.00
55679;BME280;41573;51.446;-2.018;2023-04-07T12:18:48;100329.69;;;13.73;100.00
55679;BME280;41573;51.446;-2.018;2023-04-07T12:21:13;100370.06;;;13.70;100.00
55679;BME280;41573;51.446;-2.018;2023-04-07T12:23:38;100388.44;;;13.63;100.00
55679;BME280;41573;51.446;-2.018;2023-04-07T12:26:05;100388.56;;;13.73;100.00
55679;BME280;41573;51.446;-2.018;2023-04-07T12:28:30;100379.84;;;13.93;100.00
55679;BME280;41573;51.446;-2.018;2023-04-07T12:30:55;100399.06;;;13.76;100.00
55679;BME280;41573;51.446;-2.018;2023-04-07T12:33:21;100385.22;;;13.93;100.00
55679;BME280;41573;51.446;-2.018;2023-04-07T12:35:46;100385.44;;;13.90;100.00
55679;BME280;41573;51.446;-2.018;2023-04-07T12:38:12;100405.72;;;13.70;100.00
55679;BME280;41573;51.446;-2.018;2023-04-07T12:40:37;100411.16;;;13.57;100.00
55679;BME280;41573;51.446;-2.018;2023-04-07T12:43:04;100396.47;;;13.74;100.00
55679;BME280;41573;51.446;-2.018;2023-04-07T12:45:30;100388.59;;;13.84;100.00
55679;BME280;41573;51.446;-2.018;2023-04-07T12:47:56;100377.91;;;13.95;100.00
55679;BME280;41573;51.446;-2.018;2023-04-07T12:50:22;100374.78;;;14.13;100.00
55679;BME280;41573;51.446;-2.018;2023-04-07T12:52:49;100383.53;;;14.15;100.00
55679;BME280;41573;51.446;-2.018;2023-04-07T12:55:15;100377.94;;;14.29;100.00
55679;BME280;41573;51.446;-2.018;2023-04-07T12:57:41;100373.06;;;14.35;100.00
55679;BME280;41573;51.446;-2.018;2023-04-07T13:00:07;100373.78;;;14.37;100.00
55679;BME280;41573;51.446;-2.018;2023-04-07T13:02:32;100363.81;;;14.50;100.00
55679;BME280;41573;51.446;-2.018;2023-04-07T13:04:58;100355.50;;;14.53;100.00